M I D A S
Marine Information and Data Acquisition System
Tripno 1806 of the Zeeleeuw from 2009-11-13 07:18:30 to 2009-11-13 14:55:55
Back to CruiseResearch ActivitiesStationsMapUnderway DataData graphs

EquipmentUnitsComment
TimeDGPSUTC
LatitudeDGPSDM.mWGS84
LongitudeDGPSDM.mWGS84
HeadingGyrodeg 
SOGDGPSknotsSpeed over ground
COGDGPSdegCourse over ground
DepthEcho soundermeters200 kHz
Missing or incorrect values are displayed as -999
Navigation data collected by the RV Zeeleeuw from 2009-11-13 07:26:55 to 2009-11-16 12:52:53
                                                                                    Next 1000 lines
Time Latitude Longitude Heading SOG COG Depth
2009-11-13 07:27:05 51°13.661 2°55.957 108.8 0.8 292 9.2
2009-11-13 07:27:10 51°13.662 2°55.955 108.7 1.2 292 9.3
2009-11-13 07:27:15 51°13.663 2°55.952 108.7 1.5 294 9.3
2009-11-13 07:27:20 51°13.664 2°55.948 108.7 1.7 294 9.4
2009-11-13 07:27:25 51°13.665 2°55.944 108.7 1.9 294 4.6
2009-11-13 07:27:31 51°13.666 2°55.939 108.5 2.2 293 -999
2009-11-13 07:27:36 51°13.668 2°55.934 108.2 2.4 294 -999
2009-11-13 07:27:42 51°13.669 2°55.928 107.7 2.5 291 -999
2009-11-13 07:27:48 51°13.671 2°55.921 107.1 2.7 292 -999
2009-11-13 07:27:53 51°13.672 2°55.916 106.5 2.7 290 -999
2009-11-13 07:27:59 51°13.674 2°55.908 106.1 2.8 290 -999
2009-11-13 07:28:04 51°13.675 2°55.902 105.9 2.9 289 -999
2009-11-13 07:28:08 51°13.676 2°55.897 105.9 3 288 -999
2009-11-13 07:28:14 51°13.678 2°55.89 105.9 3.1 289 -999
2009-11-13 07:28:19 51°13.679 2°55.883 105.3 3.2 288 -999
2009-11-13 07:28:23 51°13.681 2°55.877 105.1 3.3 292 -999
2009-11-13 07:28:28 51°13.682 2°55.87 104.6 3.4 291 -999
2009-11-13 07:28:34 51°13.684 2°55.861 104.4 3.4 287 -999
2009-11-13 07:28:39 51°13.685 2°55.854 103.8 3.5 288 -999
2009-11-13 07:28:43 51°13.686 2°55.848 102.4 3.4 287 -999
2009-11-13 07:28:49 51°13.688 2°55.839 101 3.4 286 -999
2009-11-13 07:28:54 51°13.689 2°55.832 99.8 3.4 284 -999
2009-11-13 07:28:59 51°13.69 2°55.825 97.6 3.3 283 -999
2009-11-13 07:29:03 51°13.691 2°55.82 95.8 3.2 282 -999
2009-11-13 07:29:08 51°13.692 2°55.813 93.5 3.1 280 -999
2009-11-13 07:29:14 51°13.692 2°55.805 91.2 3.1 279 -999
2009-11-13 07:29:19 51°13.693 2°55.798 88.5 3 277 -999
2009-11-13 07:29:24 51°13.693 2°55.792 85.6 2.9 273 -999
2009-11-13 07:29:28 51°13.693 2°55.787 83.2 2.8 271 -999
2009-11-13 07:29:34 51°13.693 2°55.78 79.5 2.8 268 -999
2009-11-13 07:29:39 51°13.692 2°55.774 76.5 2.7 264 -999
2009-11-13 07:29:43 51°13.692 2°55.769 73.5 2.6 262 14.5
2009-11-13 07:29:48 51°13.691 2°55.764 71.9 2.5 260 14.4
2009-11-13 07:29:53 51°13.691 2°55.759 69.6 2.3 258 14.4
2009-11-13 07:29:58 51°13.69 2°55.754 67.3 2.2 255 14.5
2009-11-13 07:30:03 51°13.689 2°55.75 64.8 2.1 253 14.5
2009-11-13 07:30:08 51°13.688 2°55.745 62.7 2 253 14.6
2009-11-13 07:30:12 51°13.687 2°55.743 61 1.8 251 14.6
2009-11-13 07:30:17 51°13.687 2°55.74 59.3 1.5 252 14.6
2009-11-13 07:30:23 51°13.686 2°55.737 57.4 1.1 253 14.8
2009-11-13 07:30:27 51°13.686 2°55.736 54.8 0.7 266 15.1
2009-11-13 07:30:32 51°13.686 2°55.735 51.8 0.4 289 15.1
2009-11-13 07:30:37 51°13.687 2°55.735 47.9 0.4 343 15.3
2009-11-13 07:30:41 51°13.687 2°55.735 43.1 0.6 9 15.3
2009-11-13 07:30:47 51°13.689 2°55.736 38.1 0.9 14 15.1
2009-11-13 07:30:51 51°13.69 2°55.736 33.1 1 18 15.1
2009-11-13 07:30:56 51°13.692 2°55.737 28.2 1.2 15 15
2009-11-13 07:31:01 51°13.694 2°55.738 23.2 1.4 15 14.8
2009-11-13 07:31:06 51°13.696 2°55.738 18.2 1.7 9 14.6
2009-11-13 07:31:11 51°13.698 2°55.739 13 1.8 7 14.8
2009-11-13 07:31:16 51°13.701 2°55.739 7.6 2 2 14.9
2009-11-13 07:31:20 51°13.704 2°55.738 2.1 2.4 358 14.8
2009-11-13 07:31:25 51°13.708 2°55.737 356.1 2.9 351 14.7
2009-11-13 07:31:30 51°13.713 2°55.736 349.5 3.5 346 14.7
2009-11-13 07:31:35 51°13.718 2°55.733 343.7 4 341 14.2
2009-11-13 07:31:40 51°13.723 2°55.729 339.1 4.3 338 13.9
2009-11-13 07:31:44 51°13.728 2°55.726 336 4.8 335 13.7
2009-11-13 07:31:50 51°13.736 2°55.72 333.8 5.1 333 13.7
2009-11-13 07:31:55 51°13.743 2°55.714 332.9 5.5 333 13.5
2009-11-13 07:32:00 51°13.75 2°55.708 331.9 5.8 331 13.5
2009-11-13 07:32:05 51°13.757 2°55.702 331.4 6 332 13.6
2009-11-13 07:32:10 51°13.765 2°55.695 331.4 6.3 331 13.2
2009-11-13 07:32:15 51°13.773 2°55.688 331.1 6.5 330 13
2009-11-13 07:32:20 51°13.781 2°55.681 331.1 6.7 330 13.1
2009-11-13 07:32:25 51°13.79 2°55.673 331.3 6.9 331 13
2009-11-13 07:32:30 51°13.798 2°55.666 331.4 7 331 13.1
2009-11-13 07:32:35 51°13.807 2°55.659 331.8 7.1 332 13
2009-11-13 07:32:40 51°13.816 2°55.652 332.7 7.1 333 12.9
2009-11-13 07:32:45 51°13.824 2°55.645 333.9 7 334 12.8
2009-11-13 07:32:50 51°13.833 2°55.638 334.6 6.9 334 12.7
2009-11-13 07:32:55 51°13.842 2°55.631 334.7 6.9 334 12.9
2009-11-13 07:33:00 51°13.85 2°55.625 334.7 6.9 334 12.6
2009-11-13 07:33:05 51°13.859 2°55.618 334.4 6.8 334 12.9
2009-11-13 07:33:10 51°13.867 2°55.611 334.4 6.8 334 12.7
2009-11-13 07:33:15 51°13.875 2°55.605 334.4 6.7 334 12.8
2009-11-13 07:33:20 51°13.884 2°55.598 334.7 6.7 334 12.9
2009-11-13 07:33:25 51°13.892 2°55.592 335.1 6.7 334 13.1
2009-11-13 07:33:30 51°13.9 2°55.586 335.6 6.6 335 13.1
2009-11-13 07:33:35 51°13.908 2°55.579 335.8 6.6 335 12.9
2009-11-13 07:33:40 51°13.917 2°55.573 335.8 6.6 336 12.8
2009-11-13 07:33:45 51°13.925 2°55.567 335.9 6.6 335 12.8
2009-11-13 07:33:50 51°13.933 2°55.562 336.2 6.5 336 12.9
2009-11-13 07:33:55 51°13.941 2°55.556 336.6 6.5 336 12.8
2009-11-13 07:34:00 51°13.95 2°55.55 336.4 6.5 336 12.9
2009-11-13 07:34:05 51°13.958 2°55.544 335.9 6.5 335 12.8
2009-11-13 07:34:10 51°13.966 2°55.538 335.5 6.5 335 12.8
2009-11-13 07:34:15 51°13.974 2°55.532 335.5 6.4 335 12.9
2009-11-13 07:34:20 51°13.982 2°55.526 335.5 6.4 335 12.8
2009-11-13 07:34:25 51°13.99 2°55.52 335.5 6.4 335 12.7
2009-11-13 07:34:30 51°13.998 2°55.514 335.4 6.4 335 12.6
2009-11-13 07:34:35 51°14.006 2°55.508 335.6 6.3 335 12.5
2009-11-13 07:34:40 51°14.014 2°55.502 336.2 6.3 336 12.5
2009-11-13 07:34:45 51°14.022 2°55.496 336.7 6.3 336 12.4
2009-11-13 07:34:50 51°14.03 2°55.49 336.8 6.3 335 12.3
2009-11-13 07:34:55 51°14.038 2°55.485 336.6 6.4 335 12.4
2009-11-13 07:35:00 51°14.046 2°55.478 336.4 6.7 335 12.7
2009-11-13 07:35:04 51°14.053 2°55.473 336.4 7 335 12.5
2009-11-13 07:35:10 51°14.064 2°55.466 336.7 7.2 336 12.6
2009-11-13 07:35:15 51°14.073 2°55.459 336.8 7.4 335 12.6
2009-11-13 07:35:20 51°14.083 2°55.452 336.5 7.5 336 12.6
2009-11-13 07:35:25 51°14.093 2°55.445 336.5 7.8 335 12.5
2009-11-13 07:35:30 51°14.103 2°55.438 336.5 7.9 336 12.5
2009-11-13 07:35:35 51°14.113 2°55.43 336.1 8.1 334 12.6
2009-11-13 07:35:40 51°14.123 2°55.422 335.9 8.2 335 12.6
2009-11-13 07:35:45 51°14.134 2°55.415 335.7 8.3 334 12.6
2009-11-13 07:35:50 51°14.144 2°55.406 334.7 8.5 333 12.6
2009-11-13 07:35:55 51°14.155 2°55.398 334.3 8.6 334 12.4
2009-11-13 07:36:00 51°14.166 2°55.389 334.4 8.6 333 12.6
2009-11-13 07:36:05 51°14.177 2°55.38 334.3 8.7 333 12.7
2009-11-13 07:36:10 51°14.187 2°55.371 333.3 8.8 331 12.7
2009-11-13 07:36:15 51°14.198 2°55.361 331.2 8.8 329 12.7
2009-11-13 07:36:20 51°14.208 2°55.351 329.5 8.8 327 12.6
2009-11-13 07:36:25 51°14.218 2°55.34 327.5 8.9 326 12.7
2009-11-13 07:36:30 51°14.228 2°55.328 325.7 8.9 323 12.6
2009-11-13 07:36:35 51°14.238 2°55.316 323.3 8.9 321 12.5
2009-11-13 07:36:40 51°14.247 2°55.302 320.9 9 318 12.7
2009-11-13 07:36:45 51°14.256 2°55.288 318.2 9.1 316 12.4
2009-11-13 07:36:50 51°14.265 2°55.274 315.8 9.1 313 12.7
2009-11-13 07:36:55 51°14.274 2°55.259 314.4 9.1 313 12.7
2009-11-13 07:37:00 51°14.282 2°55.243 311.9 9.2 309 12.7
2009-11-13 07:37:05 51°14.29 2°55.226 309 9.3 308 12.7
2009-11-13 07:37:10 51°14.298 2°55.209 307.8 9.4 307 12.5
2009-11-13 07:37:15 51°14.306 2°55.193 307.9 9.5 308 12.6
2009-11-13 07:37:20 51°14.314 2°55.176 307.8 9.6 307 12.7
2009-11-13 07:37:25 51°14.322 2°55.159 307 9.7 307 12.9
2009-11-13 07:37:30 51°14.33 2°55.141 306.2 9.8 306 12.9
2009-11-13 07:37:35 51°14.338 2°55.123 305.2 9.9 305 13
2009-11-13 07:37:40 51°14.345 2°55.105 304.8 9.9 305 13
2009-11-13 07:37:45 51°14.353 2°55.086 304.6 10.1 304 12.6
2009-11-13 07:37:50 51°14.361 2°55.068 304.5 10.1 304 12.6
2009-11-13 07:37:55 51°14.37 2°55.05 304.6 10.2 307 12.4
2009-11-13 07:38:00 51°14.38 2°55.035 305.9 10.3 316 12.3
2009-11-13 07:38:05 51°14.391 2°55.02 310.7 10.2 321 12.1
2009-11-13 07:38:10 51°14.403 2°55.007 315.2 10.2 323 12.1
2009-11-13 07:38:15 51°14.414 2°54.993 316.1 10.3 323 11.9
2009-11-13 07:38:20 51°14.425 2°54.979 316.2 10.4 323 12
2009-11-13 07:38:25 51°14.437 2°54.965 315.6 10.5 322 12.2
2009-11-13 07:38:29 51°14.446 2°54.953 314.6 10.5 321 12.3
2009-11-13 07:38:34 51°14.457 2°54.938 313.9 10.6 321 12.3
2009-11-13 07:38:39 51°14.469 2°54.924 314 10.7 321 12.3
2009-11-13 07:38:44 51°14.481 2°54.909 314.6 10.8 322 12.3
2009-11-13 07:38:49 51°14.493 2°54.894 315.2 10.9 323 12.2
2009-11-13 07:38:54 51°14.505 2°54.88 316.1 10.9 324 12
2009-11-13 07:38:59 51°14.517 2°54.866 317.3 10.8 325 11.9
2009-11-13 07:39:04 51°14.53 2°54.853 318.3 10.9 326 12.3
2009-11-13 07:39:09 51°14.542 2°54.839 318.5 10.9 325 12.2
2009-11-13 07:39:14 51°14.555 2°54.826 319.3 11 328 11.7
2009-11-13 07:39:20 51°14.571 2°54.81 319.9 11 327 11.7
2009-11-13 07:39:25 51°14.583 2°54.798 320.2 11 328 11.7
2009-11-13 07:39:30 51°14.596 2°54.784 320.6 10.9 327 11.7
2009-11-13 07:39:34 51°14.607 2°54.774 320.9 11 328 11.7
2009-11-13 07:39:40 51°14.622 2°54.758 320.4 10.9 326 11.5
2009-11-13 07:39:44 51°14.632 2°54.748 320.4 11 328 11.9
2009-11-13 07:39:50 51°14.648 2°54.732 320.6 11 328 11.9
2009-11-13 07:39:55 51°14.661 2°54.72 321.2 11.1 331 11.9
2009-11-13 07:40:00 51°14.675 2°54.709 323.8 11.1 332 11.9
2009-11-13 07:40:05 51°14.689 2°54.697 325 11.1 332 11.7
2009-11-13 07:40:10 51°14.703 2°54.687 326.1 11.1 334 11.7
2009-11-13 07:40:14 51°14.714 2°54.678 326.8 11.2 333 11.6
2009-11-13 07:40:20 51°14.73 2°54.666 327.2 11.2 336 11.6
2009-11-13 07:40:24 51°14.742 2°54.657 328 11.1 334 11.5
2009-11-13 07:40:30 51°14.758 2°54.645 328 11.1 335 11.6
2009-11-13 07:40:34 51°14.769 2°54.636 327.8 11.1 334 11.8
2009-11-13 07:40:40 51°14.787 2°54.624 328 11.2 336 11.6
2009-11-13 07:40:44 51°14.798 2°54.616 328.4 11.2 335 11.8
2009-11-13 07:40:50 51°14.815 2°54.603 328.6 11.2 336 11.6
2009-11-13 07:40:54 51°14.826 2°54.595 328.9 11.1 336 11.6
2009-11-13 07:41:00 51°14.842 2°54.582 328.4 11.1 334 11.8
2009-11-13 07:41:04 51°14.854 2°54.574 328 11.1 335 11.8
2009-11-13 07:41:10 51°14.87 2°54.561 327.4 11.1 334 11.9
2009-11-13 07:41:14 51°14.881 2°54.552 327 11.2 333 11.9
2009-11-13 07:41:20 51°14.898 2°54.539 326.9 11.2 334 11.9
2009-11-13 07:41:24 51°14.91 2°54.53 326.9 11.3 334 12.2
2009-11-13 07:41:30 51°14.926 2°54.516 326.9 11.2 333 11.8
2009-11-13 07:41:34 51°14.937 2°54.507 326.7 11.2 333 12
2009-11-13 07:41:40 51°14.954 2°54.494 326.9 11.2 333 12.1
2009-11-13 07:41:44 51°14.965 2°54.485 326.7 11.3 333 12.3
2009-11-13 07:41:50 51°14.982 2°54.471 326.4 11.3 332 12.3
2009-11-13 07:41:54 51°14.993 2°54.462 326.4 11.3 333 12.3
2009-11-13 07:42:00 51°15.01 2°54.447 326.3 11.3 332 12.3
2009-11-13 07:42:04 51°15.021 2°54.439 326 11.3 333 12.3
2009-11-13 07:42:10 51°15.038 2°54.425 326 11.3 332 12.5
2009-11-13 07:42:14 51°15.049 2°54.415 326.5 11.3 332 12.1
2009-11-13 07:42:20 51°15.066 2°54.401 326 11.3 332 12.4
2009-11-13 07:42:25 51°15.079 2°54.389 326 11.3 332 12.3
2009-11-13 07:42:30 51°15.093 2°54.378 326 11.3 332 12.5
2009-11-13 07:42:34 51°15.104 2°54.368 326 11.4 331 12.5
2009-11-13 07:42:40 51°15.121 2°54.354 325.9 11.3 332 12.5
2009-11-13 07:42:45 51°15.135 2°54.342 325.6 11.3 332 12.7
2009-11-13 07:42:50 51°15.149 2°54.331 326.2 11.3 332 12.6
2009-11-13 07:42:54 51°15.16 2°54.321 326.1 11.3 331 12.5
2009-11-13 07:43:00 51°15.176 2°54.307 325.3 11.3 332 12.6
2009-11-13 07:43:05 51°15.19 2°54.295 325.5 11.2 331 12.4
2009-11-13 07:43:10 51°15.204 2°54.284 325.7 11.2 332 12.7
2009-11-13 07:43:15 51°15.217 2°54.272 326 11.2 332 12.5
2009-11-13 07:43:20 51°15.231 2°54.26 326 11.3 333 12.3
2009-11-13 07:43:25 51°15.245 2°54.248 325.7 11.2 331 11.6
2009-11-13 07:43:30 51°15.259 2°54.237 325.2 11.2 332 11.6
2009-11-13 07:43:34 51°15.27 2°54.228 325.2 11.3 332 11.6
2009-11-13 07:43:40 51°15.286 2°54.214 325.4 11.2 332 11.4
2009-11-13 07:43:45 51°15.3 2°54.202 325.1 11.2 331 11.5
2009-11-13 07:43:50 51°15.314 2°54.19 324.5 11.3 331 11.6
2009-11-13 07:43:54 51°15.325 2°54.181 324.9 11.3 332 11.5
2009-11-13 07:44:00 51°15.341 2°54.167 325.1 11.2 333 11.6
2009-11-13 07:44:05 51°15.355 2°54.155 325.9 11.3 332 11.7
2009-11-13 07:44:10 51°15.369 2°54.144 325.6 11.3 332 11.7
2009-11-13 07:44:14 51°15.38 2°54.135 325.6 11.3 332 11.8
2009-11-13 07:44:20 51°15.397 2°54.12 325.9 11.3 332 11.6
2009-11-13 07:44:25 51°15.411 2°54.109 325.7 11.3 332 11.7
2009-11-13 07:44:30 51°15.425 2°54.097 325.9 11.3 332 11.9
2009-11-13 07:44:34 51°15.436 2°54.088 325.7 11.3 332 12.1
2009-11-13 07:44:40 51°15.453 2°54.074 325.9 11.4 333 12.2
2009-11-13 07:44:45 51°15.467 2°54.063 325.8 11.3 333 12.1
2009-11-13 07:44:50 51°15.48 2°54.051 326 11.3 333 12.1
2009-11-13 07:44:55 51°15.495 2°54.04 325.4 11.3 333 12.1
2009-11-13 07:45:00 51°15.508 2°54.028 326.2 11.3 333 12.1
2009-11-13 07:45:04 51°15.519 2°54.019 325.7 11.3 332 12.1
2009-11-13 07:45:10 51°15.536 2°54.005 325.6 11.3 334 12.1
2009-11-13 07:45:14 51°15.547 2°53.996 325.9 11.2 333 12.1
2009-11-13 07:45:20 51°15.564 2°53.983 325.8 11.2 332 12.6
2009-11-13 07:45:25 51°15.578 2°53.971 325.6 11.1 332 12.3
2009-11-13 07:45:30 51°15.591 2°53.96 325.4 11.2 333 12.2
2009-11-13 07:45:34 51°15.602 2°53.951 325 11.2 332 12.7
2009-11-13 07:45:40 51°15.619 2°53.937 325.5 11.2 332 12.7
2009-11-13 07:45:45 51°15.632 2°53.925 325.4 11.1 332 12.6
2009-11-13 07:45:50 51°15.646 2°53.914 325.4 11.2 332 13
2009-11-13 07:45:55 51°15.66 2°53.902 325.6 11.2 332 12.7
2009-11-13 07:46:00 51°15.674 2°53.891 325.2 11.2 332 12.6
2009-11-13 07:46:05 51°15.687 2°53.879 325.5 11.3 332 13.2
2009-11-13 07:46:10 51°15.701 2°53.867 325.4 11.2 332 12.9
2009-11-13 07:46:14 51°15.712 2°53.858 325.7 11.2 333 13
2009-11-13 07:46:20 51°15.729 2°53.844 325.7 11.3 333 13.1
2009-11-13 07:46:25 51°15.743 2°53.833 325.7 11.3 333 13
2009-11-13 07:46:30 51°15.756 2°53.821 325.6 11.3 332 13.2
2009-11-13 07:46:35 51°15.77 2°53.81 325.2 11.3 333 13.4
2009-11-13 07:46:40 51°15.784 2°53.798 325.4 11.3 332 13.3
2009-11-13 07:46:45 51°15.798 2°53.786 325.6 11.3 332 13.4
2009-11-13 07:46:50 51°15.812 2°53.775 325.5 11.4 333 13.7
2009-11-13 07:46:54 51°15.823 2°53.765 325.6 11.3 332 13.6
2009-11-13 07:47:00 51°15.84 2°53.752 325.4 11.3 333 13.4
2009-11-13 07:47:05 51°15.853 2°53.74 325.4 11.3 332 13.4
2009-11-13 07:47:10 51°15.867 2°53.728 325.4 11.3 332 13.1
2009-11-13 07:47:14 51°15.878 2°53.719 325.4 11.3 333 13.8
2009-11-13 07:47:20 51°15.895 2°53.705 325.7 11.3 332 13.5
2009-11-13 07:47:25 51°15.909 2°53.694 325.3 11.2 332 12.9
2009-11-13 07:47:30 51°15.923 2°53.683 324.9 11.2 333 13.4
2009-11-13 07:47:34 51°15.934 2°53.674 325.8 11.2 333 13.1
2009-11-13 07:47:40 51°15.95 2°53.66 325.6 11.2 333 13.4
2009-11-13 07:47:45 51°15.964 2°53.649 325.6 11.3 333 13.7
2009-11-13 07:47:50 51°15.978 2°53.637 325.6 11.2 333 13.7
2009-11-13 07:47:54 51°15.989 2°53.628 325.4 11.3 332 13.7
2009-11-13 07:48:00 51°16.006 2°53.614 325.5 11.3 332 13.6
2009-11-13 07:48:05 51°16.02 2°53.603 325.3 11.3 332 13.6
2009-11-13 07:48:10 51°16.033 2°53.591 325.2 11.3 332 13.5
2009-11-13 07:48:14 51°16.044 2°53.582 325.3 11.3 333 13.7
2009-11-13 07:48:20 51°16.061 2°53.568 325.2 11.3 333 13.7
2009-11-13 07:48:25 51°16.075 2°53.557 325.4 11.3 333 13.6
2009-11-13 07:48:30 51°16.089 2°53.545 325.4 11.3 333 13.8
2009-11-13 07:48:34 51°16.1 2°53.536 325.4 11.2 333 13.6
2009-11-13 07:48:40 51°16.116 2°53.523 325.8 11.2 333 13.8
2009-11-13 07:48:45 51°16.13 2°53.511 325.3 11.1 332 13.5
2009-11-13 07:48:50 51°16.144 2°53.5 325.3 11.2 333 13.7
2009-11-13 07:48:54 51°16.155 2°53.491 325.5 11.2 332 13.5
2009-11-13 07:49:00 51°16.172 2°53.478 325.7 11.2 333 13.8
2009-11-13 07:49:05 51°16.186 2°53.466 325.4 11.2 333 13.7
2009-11-13 07:49:10 51°16.199 2°53.455 325.6 11.1 333 13.6
2009-11-13 07:49:14 51°16.21 2°53.446 325.6 11.1 333 13.7
2009-11-13 07:49:20 51°16.227 2°53.432 325.7 11.1 333 13.8
2009-11-13 07:49:25 51°16.241 2°53.421 325.7 11.2 333 14
2009-11-13 07:49:30 51°16.254 2°53.41 325.9 11.1 333 13.7
2009-11-13 07:49:34 51°16.266 2°53.401 325.6 11.1 333 13.9
2009-11-13 07:49:40 51°16.282 2°53.388 325.6 11.1 333 14
2009-11-13 07:49:44 51°16.293 2°53.379 325.7 11.2 333 13.8
2009-11-13 07:49:50 51°16.31 2°53.366 325.4 11.2 333 13.8
2009-11-13 07:49:54 51°16.321 2°53.357 325.3 11.2 333 13.7
2009-11-13 07:50:00 51°16.337 2°53.343 325.4 11.3 333 13.8
2009-11-13 07:50:05 51°16.351 2°53.332 325.1 11 333 13.5
2009-11-13 07:50:10 51°16.364 2°53.321 325.2 11.1 333 13.8
2009-11-13 07:50:14 51°16.375 2°53.312 325.5 11.1 333 13.9
2009-11-13 07:50:20 51°16.392 2°53.298 325.6 11.1 332 13.9
2009-11-13 07:50:25 51°16.405 2°53.287 325.2 11.1 333 13.8
2009-11-13 07:50:30 51°16.419 2°53.276 325 11.1 332 14.1
2009-11-13 07:50:34 51°16.43 2°53.267 324.8 11.1 332 14.2
2009-11-13 07:50:40 51°16.447 2°53.253 325 11.1 333 14.1
2009-11-13 07:50:45 51°16.46 2°53.242 325.3 11.1 332 14.1
2009-11-13 07:50:50 51°16.474 2°53.231 325.6 11.2 333 13.8
2009-11-13 07:50:54 51°16.485 2°53.221 325.3 11.1 332 13.7
2009-11-13 07:51:00 51°16.502 2°53.208 325.5 11.2 333 13.6
2009-11-13 07:51:04 51°16.512 2°53.199 325.3 11.1 332 13.7
2009-11-13 07:51:10 51°16.529 2°53.185 325.1 11.1 331 13.8
2009-11-13 07:51:14 51°16.54 2°53.176 325.2 11.2 333 14
2009-11-13 07:51:20 51°16.556 2°53.162 324.9 11.1 332 14
2009-11-13 07:51:25 51°16.57 2°53.151 324.9 11.2 333 13.9
2009-11-13 07:51:30 51°16.583 2°53.139 324.2 11.1 331 13.9
2009-11-13 07:51:34 51°16.594 2°53.13 324.8 11.1 333 13.6
2009-11-13 07:51:40 51°16.611 2°53.116 325.2 11.1 332 13.7
2009-11-13 07:51:45 51°16.624 2°53.104 325 11.1 331 13.7
2009-11-13 07:51:50 51°16.638 2°53.093 324.1 11.1 332 13.9
2009-11-13 07:51:54 51°16.648 2°53.084 324.5 11.1 333 13.5
2009-11-13 07:52:00 51°16.665 2°53.07 325 11.1 331 13.4
2009-11-13 07:52:05 51°16.678 2°53.058 325 11 332 13.2
2009-11-13 07:52:10 51°16.692 2°53.047 325.2 11 332 13.2
2009-11-13 07:52:14 51°16.703 2°53.038 325.4 11 332 13.5
2009-11-13 07:52:20 51°16.719 2°53.024 325.4 11.1 332 13.5
2009-11-13 07:52:25 51°16.733 2°53.013 325.7 11.1 334 13.4
2009-11-13 07:52:30 51°16.746 2°53.002 325.2 11 331 13.2
2009-11-13 07:52:34 51°16.757 2°52.992 324.9 11 331 12.6
2009-11-13 07:52:40 51°16.773 2°52.979 324.8 11 332 12.9
2009-11-13 07:52:45 51°16.786 2°52.967 324.9 10.9 332 12.7
2009-11-13 07:52:50 51°16.8 2°52.956 325 10.9 332 12
2009-11-13 07:52:54 51°16.811 2°52.947 325.2 11 331 11.4
2009-11-13 07:53:00 51°16.826 2°52.932 324.6 11 330 11.3
2009-11-13 07:53:05 51°16.84 2°52.921 324.4 10.9 331 11.2
2009-11-13 07:53:10 51°16.853 2°52.909 324.5 10.9 331 10.8
2009-11-13 07:53:14 51°16.864 2°52.9 324.6 11 332 11.2
2009-11-13 07:53:20 51°16.88 2°52.886 324.8 11 332 11.2
2009-11-13 07:53:24 51°16.891 2°52.877 325 11 333 11.4
2009-11-13 07:53:30 51°16.907 2°52.863 325.3 11 332 11.8
2009-11-13 07:53:34 51°16.918 2°52.854 325.4 11 332 11.1
2009-11-13 07:53:40 51°16.934 2°52.84 325.3 11.1 331 11.5
2009-11-13 07:53:45 51°16.947 2°52.829 325.2 11 332 11.4
2009-11-13 07:53:50 51°16.961 2°52.818 325.6 11.1 332 11.3
2009-11-13 07:53:54 51°16.971 2°52.809 325.3 11 332 11.3
2009-11-13 07:54:00 51°16.988 2°52.795 325.6 11.1 333 12
2009-11-13 07:54:05 51°17.001 2°52.783 325.2 11.1 331 12
2009-11-13 07:54:10 51°17.015 2°52.772 324.5 11.1 331 12.2
2009-11-13 07:54:14 51°17.025 2°52.762 324.3 11.1 330 11.9
2009-11-13 07:54:20 51°17.041 2°52.747 324.2 11.1 331 11.8
2009-11-13 07:54:25 51°17.055 2°52.735 324.1 11 330 12
2009-11-13 07:54:30 51°17.068 2°52.724 324.1 11 331 12.3
2009-11-13 07:54:34 51°17.079 2°52.715 324.1 11.1 332 12.2
2009-11-13 07:54:40 51°17.095 2°52.701 324.8 11.1 333 12.5
2009-11-13 07:54:45 51°17.11 2°52.691 327.4 11.2 335 12.1
2009-11-13 07:54:50 51°17.123 2°52.68 327.7 11.1 333 11.7
2009-11-13 07:54:55 51°17.138 2°52.671 328.5 11.1 338 11.5
2009-11-13 07:55:00 51°17.152 2°52.66 329.6 11.1 336 11.7
2009-11-13 07:55:05 51°17.166 2°52.651 330 11.2 339 11.9
2009-11-13 07:55:10 51°17.18 2°52.642 331.1 11.2 338 12.2
2009-11-13 07:55:15 51°17.195 2°52.633 331.5 11.2 338 11.8
2009-11-13 07:55:20 51°17.21 2°52.624 332.4 11.3 339 12
2009-11-13 07:55:25 51°17.224 2°52.615 332.7 11.3 339 12
2009-11-13 07:55:30 51°17.239 2°52.607 333 11.3 340 11.9
2009-11-13 07:55:35 51°17.253 2°52.598 333.1 11.3 339 11.8
2009-11-13 07:55:40 51°17.268 2°52.59 333.2 11.3 340 11.9
2009-11-13 07:55:45 51°17.283 2°52.581 332.6 11.3 340 12.5
2009-11-13 07:55:50 51°17.298 2°52.573 333.5 11.3 340 12.4
2009-11-13 07:55:55 51°17.312 2°52.565 334 11.4 340 12.5
2009-11-13 07:56:00 51°17.327 2°52.556 333.2 11.3 339 12.3
2009-11-13 07:56:05 51°17.342 2°52.548 333.5 11.3 340 12.1
2009-11-13 07:56:10 51°17.357 2°52.539 333.8 11.4 340 12.4
2009-11-13 07:56:15 51°17.371 2°52.531 333.8 11.3 341 12.5
2009-11-13 07:56:20 51°17.386 2°52.522 334 11.3 340 12.7
2009-11-13 07:56:25 51°17.402 2°52.514 334.1 11.4 342 12.8
2009-11-13 07:56:30 51°17.416 2°52.506 334.5 11.4 340 12.8
2009-11-13 07:56:35 51°17.431 2°52.498 334.7 11.4 342 12.5
2009-11-13 07:56:40 51°17.446 2°52.49 334.7 11.4 341 12.5
2009-11-13 07:56:45 51°17.461 2°52.482 334.8 11.4 341 12.5
2009-11-13 07:56:50 51°17.477 2°52.474 334.8 11.5 342 12.7
2009-11-13 07:56:55 51°17.492 2°52.467 334.7 11.4 344 12.4
2009-11-13 07:57:00 51°17.507 2°52.46 336.4 11.5 345 12.5
2009-11-13 07:57:05 51°17.523 2°52.455 340 11.5 350 12.5
2009-11-13 07:57:10 51°17.538 2°52.451 342.7 11.5 350 12.9
2009-11-13 07:57:15 51°17.554 2°52.447 343.8 11.4 351 12.8
2009-11-13 07:57:20 51°17.57 2°52.443 344.7 11.4 352 12.5
2009-11-13 07:57:25 51°17.585 2°52.44 346.6 11.5 353 12.3
2009-11-13 07:57:30 51°17.601 2°52.438 347.9 11.6 353 12.5
2009-11-13 07:57:35 51°17.617 2°52.436 349.2 11.6 355 12.3
2009-11-13 07:57:40 51°17.634 2°52.434 349.4 11.6 355 12.4
2009-11-13 07:57:45 51°17.65 2°52.433 350.8 11.6 356 12.1
2009-11-13 07:57:50 51°17.666 2°52.431 350.6 11.6 357 12.4
2009-11-13 07:57:55 51°17.682 2°52.43 350.7 11.6 359 12.7
2009-11-13 07:58:00 51°17.698 2°52.429 351.4 11.6 358 12.9
2009-11-13 07:58:05 51°17.714 2°52.428 351.3 11.6 359 12.8
2009-11-13 07:58:10 51°17.73 2°52.428 354.2 11.7 2 12.6
2009-11-13 07:58:15 51°17.746 2°52.427 353.9 11.6 357 12.2
2009-11-13 07:58:20 51°17.762 2°52.428 354.4 11.7 1 12.6
2009-11-13 07:58:25 51°17.779 2°52.428 355.9 11.7 2 12.3
2009-11-13 07:58:30 51°17.795 2°52.43 357.2 11.7 3 13
2009-11-13 07:58:35 51°17.811 2°52.43 355.5 11.6 1 12.9
2009-11-13 07:58:40 51°17.827 2°52.431 358.6 11.7 4 12.5
2009-11-13 07:58:45 51°17.844 2°52.432 356.5 11.7 2 12.4
2009-11-13 07:58:50 51°17.86 2°52.436 358.9 11.8 8 12.5
2009-11-13 07:58:55 51°17.876 2°52.439 359.6 11.7 4 12.8
2009-11-13 07:59:00 51°17.892 2°52.443 1.5 11.9 7 12.8
2009-11-13 07:59:05 51°17.908 2°52.446 359.5 11.9 9 13.3
2009-11-13 07:59:10 51°17.924 2°52.448 2 11.7 6 12.5
2009-11-13 07:59:14 51°17.937 2°52.452 1.7 11.7 8 12.7
2009-11-13 07:59:20 51°17.957 2°52.455 1.6 11.8 7 13
2009-11-13 07:59:25 51°17.973 2°52.458 1.8 11.8 7 12.6
2009-11-13 07:59:30 51°17.989 2°52.462 2.7 11.9 8 13.1
2009-11-13 07:59:35 51°18.006 2°52.465 2.9 11.9 7 13.2
2009-11-13 07:59:40 51°18.022 2°52.47 4.2 11.8 9 12.8
2009-11-13 07:59:45 51°18.039 2°52.474 3.3 11.9 9 13.2
2009-11-13 07:59:50 51°18.054 2°52.476 2.4 11.8 7 13
2009-11-13 07:59:54 51°18.067 2°52.48 4.3 11.9 10 12.9
2009-11-13 08:00:00 51°18.087 2°52.484 3.3 11.8 7 13
2009-11-13 08:00:05 51°18.103 2°52.488 2.3 12 9 13.1
2009-11-13 08:00:10 51°18.12 2°52.491 3 11.9 8 13.1
2009-11-13 08:00:15 51°18.136 2°52.496 2.5 12 11 13.1
2009-11-13 08:00:20 51°18.153 2°52.499 3.6 11.9 7 13.1
2009-11-13 08:00:25 51°18.169 2°52.501 2.3 11.7 7 12.5
2009-11-13 08:00:30 51°18.185 2°52.507 3.7 11.8 9 13
2009-11-13 08:00:35 51°18.201 2°52.508 -999 11.7 4 13.3
2009-11-13 08:00:40 51°18.217 2°52.512 0.8 11.8 7 13.1
2009-11-13 08:00:45 51°18.233 2°52.515 1.5 11.8 9 13.3
2009-11-13 08:00:50 51°18.249 2°52.518 1.9 11.8 7 13.2
2009-11-13 08:00:55 51°18.266 2°52.522 1.3 11.8 8 13.1
2009-11-13 08:01:00 51°18.282 2°52.525 1.9 11.9 8 13.2
2009-11-13 08:01:05 51°18.298 2°52.528 1.7 11.9 7 13.2
2009-11-13 08:01:10 51°18.315 2°52.531 2.9 11.9 8 12.9
2009-11-13 08:01:15 51°18.331 2°52.534 1.5 11.8 7 13
2009-11-13 08:01:20 51°18.347 2°52.537 1.3 11.7 5 13.1
2009-11-13 08:01:25 51°18.364 2°52.54 1 11.8 8 13.1
2009-11-13 08:01:30 51°18.38 2°52.543 1.5 11.7 6 13.3
2009-11-13 08:01:35 51°18.396 2°52.547 1.5 11.8 7 13.6
2009-11-13 08:01:40 51°18.412 2°52.55 1.8 11.8 6 13.5
2009-11-13 08:01:45 51°18.429 2°52.553 1.3 11.8 8 13.6
2009-11-13 08:01:50 51°18.445 2°52.557 2.7 11.8 8 13.5
2009-11-13 08:01:55 51°18.461 2°52.56 2.1 11.8 9 13.3
2009-11-13 08:02:00 51°18.477 2°52.563 2.9 11.8 7 13.3
2009-11-13 08:02:05 51°18.494 2°52.567 1.5 11.8 7 13.4
2009-11-13 08:02:10 51°18.51 2°52.571 1.5 12 9 13.6
2009-11-13 08:02:15 51°18.526 2°52.572 1.5 11.8 5 13.4
2009-11-13 08:02:20 51°18.543 2°52.577 1.3 12 10 13.4
2009-11-13 08:02:25 51°18.559 2°52.578 1.9 11.8 2 13.5
2009-11-13 08:02:30 51°18.575 2°52.584 2.6 12 12 13.6
2009-11-13 08:02:35 51°18.591 2°52.585 1.2 11.6 3 14
2009-11-13 08:02:40 51°18.607 2°52.589 0.8 11.8 8 14
2009-11-13 08:02:45 51°18.624 2°52.591 1.5 11.8 6 13.9
2009-11-13 08:02:50 51°18.64 2°52.594 1.1 11.8 5 13.9
2009-11-13 08:02:55 51°18.656 2°52.597 1.5 11.8 7 13.9
2009-11-13 08:03:00 51°18.672 2°52.599 0.4 11.8 4 13.6
2009-11-13 08:03:05 51°18.689 2°52.603 0.3 11.9 8 13.9
2009-11-13 08:03:10 51°18.705 2°52.605 0.1 11.8 4 13.4
2009-11-13 08:03:15 51°18.721 2°52.61 0.8 11.7 10 13.9
2009-11-13 08:03:20 51°18.737 2°52.61 359.4 11.5 3 14.1
2009-11-13 08:03:25 51°18.753 2°52.614 0.3 11.7 7 14.1
2009-11-13 08:03:30 51°18.769 2°52.617 1.5 11.7 7 14.2
2009-11-13 08:03:35 51°18.786 2°52.62 0.2 11.8 6 14.2
2009-11-13 08:03:40 51°18.802 2°52.622 359.7 11.7 5 13.9
2009-11-13 08:03:45 51°18.818 2°52.626 1.1 11.8 6 14
2009-11-13 08:03:50 51°18.834 2°52.629 1.2 11.9 7 14.2
2009-11-13 08:03:55 51°18.851 2°52.631 0.4 11.8 5 14.4
2009-11-13 08:04:00 51°18.867 2°52.635 0.1 11.9 8 14.6
2009-11-13 08:04:05 51°18.883 2°52.636 0.4 11.7 4 14.6
2009-11-13 08:04:10 51°18.9 2°52.64 0.3 11.9 7 14.6
2009-11-13 08:04:15 51°18.915 2°52.643 1.5 11.7 7 14.7
2009-11-13 08:04:20 51°18.932 2°52.646 0.3 11.9 7 15
2009-11-13 08:04:25 51°18.948 2°52.65 0.8 11.8 7 15
2009-11-13 08:04:30 51°18.964 2°52.652 1 11.8 6 15.2
2009-11-13 08:04:35 51°18.981 2°52.655 0.4 11.9 7 15.1
2009-11-13 08:04:40 51°18.997 2°52.657 0.4 11.8 6 15.1
2009-11-13 08:04:45 51°19.013 2°52.66 -999 11.9 8 14.7
2009-11-13 08:04:50 51°19.03 2°52.662 1.1 11.9 6 15
2009-11-13 08:04:55 51°19.046 2°52.665 359.3 11.9 8 15.4
2009-11-13 08:05:00 51°19.062 2°52.668 1.5 11.9 5 15.6
2009-11-13 08:05:05 51°19.079 2°52.671 359.5 11.9 7 15.5
2009-11-13 08:05:10 51°19.095 2°52.672 359.6 11.8 4 15.2
2009-11-13 08:05:15 51°19.111 2°52.676 0.1 11.9 7 15.2
2009-11-13 08:05:20 51°19.128 2°52.679 0.2 11.8 6 15.7
2009-11-13 08:05:25 51°19.144 2°52.681 359.8 11.8 5 15.3
2009-11-13 08:05:30 51°19.16 2°52.684 0.8 11.8 7 15.7
2009-11-13 08:05:35 51°19.177 2°52.687 359.5 11.8 8 16.1
2009-11-13 08:05:40 51°19.193 2°52.689 0.1 11.7 5 16
2009-11-13 08:05:45 51°19.209 2°52.692 359.7 11.9 6 15.7
2009-11-13 08:05:50 51°19.226 2°52.694 359.9 11.9 6 15.7
2009-11-13 08:05:55 51°19.242 2°52.697 0.3 11.8 6 15.9
2009-11-13 08:06:00 51°19.258 2°52.7 0.6 11.9 5 15.7
2009-11-13 08:06:05 51°19.275 2°52.702 0.4 11.8 5 15.8
2009-11-13 08:06:10 51°19.291 2°52.706 0.7 11.9 7 16
2009-11-13 08:06:15 51°19.307 2°52.708 0.5 11.8 5 16.2
2009-11-13 08:06:20 51°19.324 2°52.712 -999 12 9 16.8
2009-11-13 08:06:25 51°19.34 2°52.713 359.4 11.8 4 16.5
2009-11-13 08:06:30 51°19.356 2°52.716 0.3 11.9 6 16.2
2009-11-13 08:06:35 51°19.373 2°52.718 359.9 11.8 5 16.5
2009-11-13 08:06:40 51°19.389 2°52.72 358.6 11.7 4 16.5
2009-11-13 08:06:45 51°19.406 2°52.722 359.9 11.8 4 16.6
2009-11-13 08:06:50 51°19.422 2°52.725 359.7 11.9 6 16.8
2009-11-13 08:06:55 51°19.438 2°52.727 359.6 11.9 5 16.8
2009-11-13 08:07:00 51°19.455 2°52.73 0.2 11.9 6 16.6
2009-11-13 08:07:05 51°19.471 2°52.733 0.1 11.9 6 16.9
2009-11-13 08:07:10 51°19.488 2°52.735 0.2 11.9 4 16.8
2009-11-13 08:07:15 51°19.504 2°52.738 0.2 12 7 16.9
2009-11-13 08:07:20 51°19.521 2°52.741 1.1 12 7 17
2009-11-13 08:07:25 51°19.537 2°52.744 1.5 11.9 5 16.7
2009-11-13 08:07:30 51°19.553 2°52.748 0.6 11.9 7 17.2
2009-11-13 08:07:35 51°19.569 2°52.75 2.1 11.8 5 17.1
2009-11-13 08:07:40 51°19.586 2°52.755 1.3 11.9 9 17.4
2009-11-13 08:07:45 51°19.602 2°52.757 0.4 11.8 7 17.7
2009-11-13 08:07:50 51°19.619 2°52.76 1.3 11.9 6 17.3
2009-11-13 08:07:55 51°19.635 2°52.763 1.5 11.9 6 17.4
2009-11-13 08:08:00 51°19.651 2°52.767 1.4 11.8 8 17.4
2009-11-13 08:08:05 51°19.668 2°52.77 359.9 11.8 7 17.7
2009-11-13 08:08:10 51°19.684 2°52.773 1.6 11.9 6 18
2009-11-13 08:08:15 51°19.701 2°52.775 0.7 11.8 5 17.5
2009-11-13 08:08:20 51°19.717 2°52.779 0.4 12 7 17.9
2009-11-13 08:08:25 51°19.734 2°52.782 0.1 12 8 17.8
2009-11-13 08:08:30 51°19.75 2°52.785 1.5 12 7 17.8
2009-11-13 08:08:35 51°19.767 2°52.788 0.1 12 8 17.9
2009-11-13 08:08:40 51°19.783 2°52.79 1.5 11.9 8 18.1
2009-11-13 08:08:45 51°19.799 2°52.793 359 11.9 8 18.2
2009-11-13 08:08:50 51°19.815 2°52.796 1.3 11.9 8 18.2
2009-11-13 08:08:55 51°19.832 2°52.799 -999 11.9 6 18.2
2009-11-13 08:09:00 51°19.848 2°52.802 0.6 11.9 5 18.2
2009-11-13 08:09:05 51°19.865 2°52.804 0.5 12 6 18.3
2009-11-13 08:09:10 51°19.881 2°52.808 0.4 12 8 18.3
2009-11-13 08:09:15 51°19.898 2°52.81 359.9 11.9 5 18.4
2009-11-13 08:09:20 51°19.914 2°52.813 0.6 12 8 18.2
2009-11-13 08:09:25 51°19.931 2°52.815 1 12 5 18.1
2009-11-13 08:09:30 51°19.947 2°52.819 1.4 12 8 18.3
2009-11-13 08:09:35 51°19.964 2°52.822 359.9 12.1 6 18.6
2009-11-13 08:09:40 51°19.981 2°52.824 0.5 12 5 18.1
2009-11-13 08:09:45 51°19.997 2°52.828 0.2 12.1 8 18.5
2009-11-13 08:09:50 51°20.014 2°52.83 0.2 12 5 18.6
2009-11-13 08:09:55 51°20.03 2°52.833 0.1 11.9 5 18
2009-11-13 08:10:00 51°20.047 2°52.837 1 12.1 8 18.5
2009-11-13 08:10:05 51°20.063 2°52.838 358.6 11.8 4 18.4
2009-11-13 08:10:10 51°20.079 2°52.842 1.5 12 10 18.4
2009-11-13 08:10:15 51°20.096 2°52.843 359.6 11.7 3 18.4
2009-11-13 08:10:20 51°20.113 2°52.847 359.4 12.1 8 18.5
2009-11-13 08:10:25 51°20.129 2°52.849 -999 12 4 18.3
2009-11-13 08:10:30 51°20.145 2°52.852 0.1 11.9 7 18.5
2009-11-13 08:10:35 51°20.162 2°52.856 0.4 12.1 7 18.9
2009-11-13 08:10:40 51°20.178 2°52.857 -999 11.9 4 18.3
2009-11-13 08:10:45 51°20.195 2°52.861 -999 12 7 18.3
2009-11-13 08:10:50 51°20.211 2°52.865 1.2 12 9 18.8
2009-11-13 08:10:55 51°20.228 2°52.867 359 11.8 5 18.9
2009-11-13 08:11:00 51°20.244 2°52.871 1.1 12 7 18.9
2009-11-13 08:11:05 51°20.26 2°52.872 358.5 11.8 4 18.6
2009-11-13 08:11:10 51°20.277 2°52.877 2.5 12 11 18.5
2009-11-13 08:11:15 51°20.293 2°52.878 0.8 11.7 3 18.7
2009-11-13 08:11:20 51°20.309 2°52.882 0.4 11.8 7 18.5
2009-11-13 08:11:25 51°20.325 2°52.885 1.7 11.8 4 18.5
2009-11-13 08:11:30 51°20.342 2°52.888 0.5 11.9 7 18.6
2009-11-13 08:11:35 51°20.358 2°52.89 0.6 11.8 5 18.3
2009-11-13 08:11:40 51°20.375 2°52.894 0.1 12 7 18.2
2009-11-13 08:11:45 51°20.391 2°52.896 0.8 11.8 4 18.3
2009-11-13 08:11:50 51°20.408 2°52.9 0.8 11.9 8 18.4
2009-11-13 08:11:55 51°20.424 2°52.902 0.3 11.9 5 18.7
2009-11-13 08:12:00 51°20.44 2°52.907 1.3 11.8 10 18.8
2009-11-13 08:12:05 51°20.457 2°52.911 4.4 11.9 10 18.7
2009-11-13 08:12:10 51°20.473 2°52.914 3.5 11.9 7 18.3
2009-11-13 08:12:15 51°20.489 2°52.921 6.8 11.9 14 18.5
2009-11-13 08:12:20 51°20.505 2°52.926 6.4 11.8 10 18.6
2009-11-13 08:12:25 51°20.521 2°52.93 4.4 11.8 10 18.4
2009-11-13 08:12:30 51°20.537 2°52.938 8.7 12 17 18.3
2009-11-13 08:12:35 51°20.553 2°52.941 6.9 11.8 9 18.6
2009-11-13 08:12:40 51°20.569 2°52.948 6.4 11.8 15 18.6
2009-11-13 08:12:45 51°20.585 2°52.953 8.3 11.9 10 18.4
2009-11-13 08:12:50 51°20.602 2°52.959 7 12 11 18.6
2009-11-13 08:12:55 51°20.618 2°52.964 6 11.7 11 18.5
2009-11-13 08:13:00 51°20.634 2°52.971 8.6 12 14 18.4
2009-11-13 08:13:05 51°20.65 2°52.975 7.1 11.9 10 18.5
2009-11-13 08:13:10 51°20.666 2°52.982 6.6 11.8 13 18.4
2009-11-13 08:13:15 51°20.682 2°52.988 10.6 11.9 12 18.2
2009-11-13 08:13:20 51°20.698 2°52.993 7.3 11.7 11 18.6
2009-11-13 08:13:25 51°20.714 2°53 6.8 11.8 16 19.1
2009-11-13 08:13:30 51°20.73 2°53.005 8.1 11.9 11 18.8
2009-11-13 08:13:35 51°20.746 2°53.01 7.6 11.8 10 18.5
2009-11-13 08:13:40 51°20.762 2°53.017 6.1 11.7 15 18.6
2009-11-13 08:13:45 51°20.777 2°53.025 10.3 11.8 17 18.5
2009-11-13 08:13:50 51°20.793 2°53.029 8.7 11.7 10 18.7
2009-11-13 08:13:55 51°20.809 2°53.037 8.1 11.8 17 18.8
2009-11-13 08:14:00 51°20.825 2°53.042 8.7 11.8 13 18.6
2009-11-13 08:14:05 51°20.841 2°53.047 8.2 11.7 11 18.3
2009-11-13 08:14:10 51°20.856 2°53.054 7.7 11.7 17 18.9
2009-11-13 08:14:15 51°20.873 2°53.059 7.3 11.8 13 18.6
2009-11-13 08:14:20 51°20.889 2°53.065 8.3 11.8 12 18.6
2009-11-13 08:14:25 51°20.904 2°53.071 6.9 11.9 14 18.7
2009-11-13 08:14:30 51°20.921 2°53.076 7.9 11.8 12 18.3
2009-11-13 08:14:35 51°20.937 2°53.082 7.3 11.8 13 18
2009-11-13 08:14:40 51°20.952 2°53.089 9.4 11.8 14 18.4
2009-11-13 08:14:45 51°20.968 2°53.092 5.9 11.8 8 18.5
2009-11-13 08:14:50 51°20.984 2°53.1 6.7 11.9 15 17.8
2009-11-13 08:14:55 51°21 2°53.103 7.6 11.6 9 17.7
2009-11-13 08:15:00 51°21.016 2°53.111 8.4 11.9 16 18.1
2009-11-13 08:15:05 51°21.031 2°53.117 8.5 11.8 13 18.3
2009-11-13 08:15:10 51°21.048 2°53.123 7.3 11.7 12 18
2009-11-13 08:15:15 51°21.063 2°53.13 8.8 11.9 15 17.8
2009-11-13 08:15:20 51°21.08 2°53.134 8.8 11.8 11 18
2009-11-13 08:15:25 51°21.095 2°53.142 8.8 11.8 15 17.8
2009-11-13 08:15:30 51°21.111 2°53.147 7.7 11.8 12 17.9
2009-11-13 08:15:35 51°21.127 2°53.153 7.1 11.7 13 18
2009-11-13 08:15:41 51°21.146 2°53.161 8.2 11.8 15 17.8
2009-11-13 08:15:46 51°21.162 2°53.166 7.8 11.9 11 17.4
2009-11-13 08:15:51 51°21.178 2°53.173 9.3 11.9 16 17.8
2009-11-13 08:15:56 51°21.194 2°53.179 7.5 11.8 12 18
2009-11-13 08:16:01 51°21.21 2°53.184 8.6 11.8 11 17.6
2009-11-13 08:16:06 51°21.226 2°53.19 8.1 11.9 13 17.6
2009-11-13 08:16:11 51°21.242 2°53.197 7.9 11.9 14 17.6
2009-11-13 08:16:16 51°21.259 2°53.202 8.1 11.9 10 17.3
2009-11-13 08:16:20 51°21.271 2°53.208 7.7 11.9 15 17.5
2009-11-13 08:16:25 51°21.287 2°53.213 7.4 11.8 13 17.9
2009-11-13 08:16:30 51°21.303 2°53.218 6.9 11.9 11 17.4
2009-11-13 08:16:35 51°21.319 2°53.225 8.6 11.9 14 17.2
2009-11-13 08:16:40 51°21.336 2°53.231 7.3 12 11 17.9
2009-11-13 08:16:45 51°21.352 2°53.238 6.6 11.9 15 17.4
2009-11-13 08:16:50 51°21.368 2°53.244 8.7 11.9 14 17.1
2009-11-13 08:16:55 51°21.384 2°53.249 7.3 11.9 11 17.5
2009-11-13 08:17:00 51°21.4 2°53.255 6.8 12 13 17.6
2009-11-13 08:17:05 51°21.416 2°53.261 6.6 12 13 18
2009-11-13 08:17:10 51°21.432 2°53.267 6.6 12 12 17.5
2009-11-13 08:17:15 51°21.449 2°53.273 8.1 12 12 17.5
2009-11-13 08:17:20 51°21.465 2°53.28 6.3 12.1 14 18
2009-11-13 08:17:25 51°21.481 2°53.287 8.4 12 15 18.3
2009-11-13 08:17:30 51°21.497 2°53.293 8.1 11.9 12 18.4
2009-11-13 08:17:35 51°21.513 2°53.299 7.7 12 15 18.3
2009-11-13 08:17:40 51°21.53 2°53.306 8.2 12.1 13 18.5
2009-11-13 08:17:45 51°21.546 2°53.312 7.2 12.1 13 18.3
2009-11-13 08:17:50 51°21.562 2°53.319 7.3 12.1 14 18.7
2009-11-13 08:17:55 51°21.578 2°53.324 6.8 11.9 13 18.7
2009-11-13 08:18:00 51°21.594 2°53.331 8.8 12 14 18.5
2009-11-13 08:18:05 51°21.61 2°53.336 8.1 11.9 12 18.8
2009-11-13 08:18:10 51°21.626 2°53.343 6.9 12 13 19.2
2009-11-13 08:18:14 51°21.639 2°53.347 7.4 12 12 19.4
2009-11-13 08:18:20 51°21.659 2°53.354 6.6 12 13 19.5
2009-11-13 08:18:25 51°21.675 2°53.361 6.5 12 14 19.5
2009-11-13 08:18:30 51°21.691 2°53.366 8.2 11.9 13 19
2009-11-13 08:18:35 51°21.707 2°53.373 7.6 12.1 14 19.5
2009-11-13 08:18:40 51°21.723 2°53.378 4.7 11.7 11 20
2009-11-13 08:18:45 51°21.74 2°53.385 7.7 12.1 16 20
2009-11-13 08:18:50 51°21.756 2°53.389 6.7 12 11 20
2009-11-13 08:18:55 51°21.772 2°53.395 5.9 11.8 14 20.2
2009-11-13 08:19:00 51°21.788 2°53.402 8 12.1 12 20.1
2009-11-13 08:19:05 51°21.805 2°53.406 6.6 12.1 10 20.3
2009-11-13 08:19:10 51°21.821 2°53.413 5.8 12 14 20.6
2009-11-13 08:19:15 51°21.837 2°53.419 9.1 11.9 11 20.8
2009-11-13 08:19:20 51°21.853 2°53.425 6.6 12.2 15 21.3
2009-11-13 08:19:25 51°21.87 2°53.43 7.3 12 11 21.2
2009-11-13 08:19:30 51°21.886 2°53.437 7.5 12.2 13 21.4
2009-11-13 08:19:35 51°21.902 2°53.442 7.7 12.1 13 21.5
2009-11-13 08:19:40 51°21.919 2°53.448 6.6 12.1 12 21.3
2009-11-13 08:19:45 51°21.935 2°53.454 7.2 12 12 21.4
2009-11-13 08:19:50 51°21.951 2°53.46 6.2 12.2 13 21.9
2009-11-13 08:19:55 51°21.968 2°53.464 6.6 12 9 21.8
2009-11-13 08:20:00 51°21.984 2°53.471 6.4 12.1 14 21.8
2009-11-13 08:20:05 51°22 2°53.476 6.8 12.1 12 22.3
2009-11-13 08:20:10 51°22.017 2°53.481 5.5 11.9 9 21.9
2009-11-13 08:20:14 51°22.029 2°53.487 8 11.9 12 21.5
2009-11-13 08:20:20 51°22.049 2°53.492 5.4 12 10 22.3
2009-11-13 08:20:25 51°22.065 2°53.498 5.8 11.9 14 22.2
2009-11-13 08:20:30 51°22.081 2°53.503 7.7 11.9 12 22.1
2009-11-13 08:20:35 51°22.098 2°53.509 6 12.1 14 22.6
2009-11-13 08:20:40 51°22.114 2°53.514 5.9 11.9 10 22.7
2009-11-13 08:20:45 51°22.13 2°53.521 6.5 12.1 14 22.9
2009-11-13 08:20:50 51°22.147 2°53.525 6.3 12.1 12 23.1
2009-11-13 08:20:55 51°22.163 2°53.531 7.6 12 10 22.6
2009-11-13 08:21:00 51°22.179 2°53.539 7.1 12.1 16 23.2
2009-11-13 08:21:05 51°22.196 2°53.544 7 12 13 23.5
2009-11-13 08:21:10 51°22.212 2°53.549 6.7 11.9 10 23.7
2009-11-13 08:21:15 51°22.228 2°53.556 7.7 12.1 16 23.4
2009-11-13 08:21:20 51°22.244 2°53.561 8.2 12.1 11 24
2009-11-13 08:21:25 51°22.261 2°53.567 6.6 12 14 23.8
2009-11-13 08:21:30 51°22.277 2°53.574 8.8 12.1 16 24.3
2009-11-13 08:21:35 51°22.293 2°53.579 7.1 12.2 13 24.4
2009-11-13 08:21:40 51°22.31 2°53.585 8.2 12 13 24.2
2009-11-13 08:21:45 51°22.326 2°53.592 8.7 12.1 15 24.4
2009-11-13 08:21:50 51°22.342 2°53.598 8 12 13 24.4
2009-11-13 08:21:55 51°22.358 2°53.604 7.1 12.1 16 24.7
2009-11-13 08:22:00 51°22.374 2°53.61 8.8 12 11 24.6
2009-11-13 08:22:05 51°22.391 2°53.616 6.6 12 13 24.7
2009-11-13 08:22:10 51°22.407 2°53.622 7 12 13 24.7
2009-11-13 08:22:15 51°22.423 2°53.629 8.2 12.2 15 24.7
2009-11-13 08:22:20 51°22.44 2°53.633 7.5 12 10 24.4
2009-11-13 08:22:25 51°22.456 2°53.641 9.3 12.2 17 24.9
2009-11-13 08:22:30 51°22.472 2°53.644 6 11.9 8 25.3
2009-11-13 08:22:35 51°22.489 2°53.652 6.4 12.1 16 25.4
2009-11-13 08:22:40 51°22.505 2°53.657 8 12 13 25.4
2009-11-13 08:22:45 51°22.521 2°53.663 8.4 12.1 12 25
2009-11-13 08:22:50 51°22.537 2°53.669 7.3 11.9 13 25.2
2009-11-13 08:22:55 51°22.554 2°53.676 8 12.1 16 25.3
2009-11-13 08:23:00 51°22.57 2°53.681 8.1 12 10 24.8
2009-11-13 08:23:05 51°22.586 2°53.688 8.6 12.1 16 24.6
2009-11-13 08:23:10 51°22.602 2°53.695 8.8 12.1 15 25
2009-11-13 08:23:14 51°22.615 2°53.699 7.5 11.9 10 24.8
2009-11-13 08:23:20 51°22.635 2°53.707 7.6 12.1 15 25
2009-11-13 08:23:25 51°22.651 2°53.713 8.7 12.1 14 24.8
2009-11-13 08:23:30 51°22.667 2°53.717 7.2 11.9 10 24.6
2009-11-13 08:23:35 51°22.683 2°53.725 6.9 12.1 16 24.8
2009-11-13 08:23:40 51°22.7 2°53.729 8.1 12 10 24.8
2009-11-13 08:23:45 51°22.716 2°53.735 6.9 12 13 25
2009-11-13 08:23:50 51°22.732 2°53.741 7.6 12 13 24.9
2009-11-13 08:23:55 51°22.749 2°53.745 6.6 12.1 10 25.1
2009-11-13 08:24:00 51°22.765 2°53.752 6.5 12.1 15 25.2
2009-11-13 08:24:05 51°22.782 2°53.757 7.7 12.2 12 25.2
2009-11-13 08:24:10 51°22.798 2°53.763 7.4 12.1 12 24.8
2009-11-13 08:24:15 51°22.815 2°53.77 7 12.1 16 25.3
2009-11-13 08:24:20 51°22.83 2°53.775 9 11.9 11 24.8
2009-11-13 08:24:25 51°22.847 2°53.781 7.3 12 12 24.6
2009-11-13 08:24:30 51°22.863 2°53.787 6.8 12 13 24.8
2009-11-13 08:24:35 51°22.88 2°53.792 8.4 12.1 10 24
2009-11-13 08:24:40 51°22.896 2°53.798 6.7 12.1 13 23.7
2009-11-13 08:24:45 51°22.912 2°53.803 6.5 12 12 23.1
2009-11-13 08:24:50 51°22.929 2°53.809 8.1 12.1 13 23.7
2009-11-13 08:24:55 51°22.945 2°53.814 6.9 12.2 12 22.4
2009-11-13 08:25:00 51°22.962 2°53.82 6.9 12.2 13 20
2009-11-13 08:25:05 51°22.978 2°53.826 7.9 12.1 12 23.2
2009-11-13 08:25:10 51°22.995 2°53.832 7.7 12.3 14 23.9
2009-11-13 08:25:15 51°23.012 2°53.836 6.6 12.2 10 21.7
2009-11-13 08:25:20 51°23.028 2°53.844 9.1 12.2 15 22.5
2009-11-13 08:25:25 51°23.045 2°53.848 7.1 12.2 10 24.1
2009-11-13 08:25:30 51°23.061 2°53.854 6.8 12.1 12 23.1
2009-11-13 08:25:34 51°23.074 2°53.859 7.7 12.2 15 25.4
2009-11-13 08:25:40 51°23.094 2°53.865 6.4 12.1 10 24.2
2009-11-13 08:25:45 51°23.11 2°53.873 8.8 12.2 16 23.5
2009-11-13 08:25:50 51°23.127 2°53.877 8.1 12 9 22.2
2009-11-13 08:25:55 51°23.143 2°53.884 7.9 12.3 13 22.2
2009-11-13 08:26:00 51°23.16 2°53.888 6.1 12.1 11 24.3
2009-11-13 08:26:05 51°23.176 2°53.896 8.9 12.2 14 24.2
2009-11-13 08:26:10 51°23.193 2°53.9 7.3 12.3 9 23.4
2009-11-13 08:26:15 51°23.209 2°53.907 7.2 12.1 14 22.8
2009-11-13 08:26:20 51°23.226 2°53.912 7.5 12.3 13 21.9
2009-11-13 08:26:25 51°23.242 2°53.917 7.8 12.1 9 22.4
2009-11-13 08:26:30 51°23.258 2°53.924 7.3 12 13 23.1
2009-11-13 08:26:35 51°23.274 2°53.931 10.3 11.9 13 23.2
2009-11-13 08:26:40 51°23.291 2°53.935 7.5 12.1 11 22.8
2009-11-13 08:26:45 51°23.307 2°53.941 7.2 11.9 12 21
2009-11-13 08:26:50 51°23.323 2°53.948 7.8 12.1 14 22.8
2009-11-13 08:26:55 51°23.34 2°53.951 6.3 12 8 22.8
2009-11-13 08:27:00 51°23.356 2°53.957 6.8 12.1 12 22.3
2009-11-13 08:27:05 51°23.373 2°53.963 7.3 12.2 12 22.7
2009-11-13 08:27:10 51°23.389 2°53.966 4.6 12 6 22.3
2009-11-13 08:27:15 51°23.405 2°53.973 6.9 12.1 14 21.8
2009-11-13 08:27:20 51°23.422 2°53.978 6.6 12.1 10 21.4
2009-11-13 08:27:25 51°23.439 2°53.984 6.7 12.2 13 23.1
2009-11-13 08:27:30 51°23.455 2°53.989 6.6 12.2 12 22.8
2009-11-13 08:27:34 51°23.468 2°53.994 7.8 12.3 11 22.7
2009-11-13 08:27:40 51°23.488 2°54 6.3 12.2 11 22.5
2009-11-13 08:27:45 51°23.505 2°54.006 7 12.3 13 22.5
2009-11-13 08:27:50 51°23.522 2°54.01 6.3 12.3 9 21.7
2009-11-13 08:27:55 51°23.538 2°54.016 6.8 12.2 13 20.1
2009-11-13 08:28:00 51°23.555 2°54.021 7.2 12.2 11 22.7
2009-11-13 08:28:05 51°23.572 2°54.026 7 12.2 12 22.9
2009-11-13 08:28:10 51°23.588 2°54.032 7 12.1 13 22.9
2009-11-13 08:28:15 51°23.605 2°54.037 6.9 12.3 11 22.2
2009-11-13 08:28:20 51°23.621 2°54.043 7.9 12.2 10 19.8
2009-11-13 08:28:25 51°23.638 2°54.049 6.3 12.3 13 22.7
2009-11-13 08:28:30 51°23.655 2°54.055 8.1 12.3 13 22.8
2009-11-13 08:28:35 51°23.671 2°54.061 6.6 12.3 12 23.1
2009-11-13 08:28:40 51°23.688 2°54.066 6.3 12.2 11 22.9
2009-11-13 08:28:45 51°23.704 2°54.073 8.2 12.4 14 22.8
2009-11-13 08:28:50 51°23.721 2°54.076 6.6 12.2 9 22.4
2009-11-13 08:28:55 51°23.738 2°54.085 8.9 12.4 17 22.7
2009-11-13 08:29:00 51°23.755 2°54.088 7.3 12.3 9 23
2009-11-13 08:29:05 51°23.771 2°54.095 8.2 12.1 12 21.8
2009-11-13 08:29:10 51°23.787 2°54.103 8.2 12.2 16 23.5
2009-11-13 08:29:15 51°23.804 2°54.107 7.7 12.2 11 23.2
2009-11-13 08:29:20 51°23.821 2°54.113 7.1 12.2 11 23
2009-11-13 08:29:25 51°23.837 2°54.12 8.1 12.3 15 22.8
2009-11-13 08:29:30 51°23.854 2°54.124 7.2 12.3 10 23.3
2009-11-13 08:29:35 51°23.87 2°54.13 6.4 12.2 13 22.9
2009-11-13 08:29:40 51°23.887 2°54.136 7.6 12.3 11 23.2
2009-11-13 08:29:45 51°23.904 2°54.14 5.9 12.3 9 23.2
2009-11-13 08:29:50 51°23.92 2°54.146 5.5 12.2 13 23.3
2009-11-13 08:29:55 51°23.937 2°54.152 7.6 12.3 12 23.5
2009-11-13 08:30:00 51°23.954 2°54.156 6 12.2 9 23.6
2009-11-13 08:30:05 51°23.971 2°54.165 7.7 12.4 16 24
2009-11-13 08:30:10 51°23.988 2°54.167 6.6 12.3 7 23.4
2009-11-13 08:30:15 51°24.004 2°54.175 7.3 12.4 14 23.2
2009-11-13 08:30:20 51°24.02 2°54.181 8.1 12.1 12 23.7
2009-11-13 08:30:25 51°24.037 2°54.187 7 12.3 14 23.8
2009-11-13 08:30:30 51°24.054 2°54.192 7.8 12.2 12 23.7
2009-11-13 08:30:34 51°24.067 2°54.197 7.1 12.3 14 23.7
2009-11-13 08:30:40 51°24.087 2°54.205 7.5 12.4 13 23.7
2009-11-13 08:30:45 51°24.104 2°54.209 7 12.1 9 23.3
2009-11-13 08:30:50 51°24.12 2°54.217 7.9 12.3 17 23.3
2009-11-13 08:30:55 51°24.137 2°54.221 8 12.2 10 23.8
2009-11-13 08:31:00 51°24.153 2°54.229 8.2 12.3 15 24.1
2009-11-13 08:31:05 51°24.17 2°54.234 7.6 12.2 13 23.9
2009-11-13 08:31:10 51°24.187 2°54.241 7.7 12.3 15 24.4
2009-11-13 08:31:15 51°24.203 2°54.244 4.9 12.1 11 24.2
2009-11-13 08:31:20 51°24.22 2°54.253 9.2 12.5 18 24.5
2009-11-13 08:31:25 51°24.236 2°54.255 6.6 12 8 23.8
2009-11-13 08:31:30 51°24.252 2°54.264 8.2 12.1 15 23.5
2009-11-13 08:31:35 51°24.269 2°54.268 6.6 12.2 11 22.3
2009-11-13 08:31:40 51°24.286 2°54.275 6 12.2 14 23.6
2009-11-13 08:31:45 51°24.302 2°54.281 9.9 12 12 24.2
2009-11-13 08:31:50 51°24.318 2°54.285 4.7 12 8 24.6
2009-11-13 08:31:55 51°24.334 2°54.291 7 12.2 14 23.8
2009-11-13 08:32:00 51°24.351 2°54.297 7.2 12.2 12 24.5
2009-11-13 08:32:05 51°24.367 2°54.303 6.8 11.9 13 24.1
2009-11-13 08:32:10 51°24.384 2°54.309 8 12.2 14 23.4
2009-11-13 08:32:15 51°24.4 2°54.313 7 11.9 10 22.8
2009-11-13 08:32:20 51°24.416 2°54.321 8.3 12.2 16 23
2009-11-13 08:32:25 51°24.433 2°54.325 7 12 9 23.3
2009-11-13 08:32:30 51°24.449 2°54.332 6.2 11.9 13 22.8
2009-11-13 08:32:35 51°24.465 2°54.338 9.5 11.9 12 22.3
2009-11-13 08:32:40 51°24.481 2°54.341 4.2 11.8 10 21.5
2009-11-13 08:32:45 51°24.497 2°54.349 8.8 11.8 14 22
2009-11-13 08:32:50 51°24.514 2°54.353 6.3 11.9 10 22.4
2009-11-13 08:32:55 51°24.53 2°54.357 7.3 11.8 9 20.5
2009-11-13 08:33:00 51°24.546 2°54.365 8 11.9 16 21.2
2009-11-13 08:33:05 51°24.562 2°54.368 6.4 11.7 9 21.4
2009-11-13 08:33:10 51°24.577 2°54.376 9.2 11.8 16 21.4
2009-11-13 08:33:15 51°24.594 2°54.381 6.3 11.7 10 21.4
2009-11-13 08:33:20 51°24.61 2°54.385 7.3 11.7 9 20.5
2009-11-13 08:33:25 51°24.626 2°54.392 8 12 16 20.3
2009-11-13 08:33:30 51°24.642 2°54.397 8.1 11.8 13 20.3
2009-11-13 08:33:35 51°24.658 2°54.402 5.8 11.8 13 19.8
2009-11-13 08:33:40 51°24.673 2°54.409 9.2 11.8 13 19.6
2009-11-13 08:33:45 51°24.69 2°54.413 6.6 11.9 11 19.8
2009-11-13 08:33:50 51°24.706 2°54.42 8.4 12.1 16 20
2009-11-13 08:33:55 51°24.722 2°54.423 4.3 11.7 5 19.8
2009-11-13 08:34:00 51°24.738 2°54.432 7.7 12.1 16 19.9
2009-11-13 08:34:05 51°24.754 2°54.433 6.5 11.8 6 19.2
2009-11-13 08:34:10 51°24.77 2°54.442 6.6 12.1 16 19.7
2009-11-13 08:34:15 51°24.786 2°54.444 5.3 11.7 7 18.8
2009-11-13 08:34:20 51°24.802 2°54.452 6.7 12 16 19.2
2009-11-13 08:34:25 51°24.818 2°54.455 8.1 11.8 9 20.1
2009-11-13 08:34:30 51°24.834 2°54.46 4.2 11.6 9 19.9
2009-11-13 08:34:35 51°24.85 2°54.466 7.9 11.8 13 19.5
2009-11-13 08:34:40 51°24.866 2°54.471 7.9 11.8 10 20.3
2009-11-13 08:34:45 51°24.882 2°54.476 5.2 11.7 12 20.4
2009-11-13 08:34:50 51°24.898 2°54.483 7.7 11.8 15 19.7
2009-11-13 08:34:55 51°24.914 2°54.488 8.5 11.9 11 19.6
2009-11-13 08:35:00 51°24.93 2°54.494 6.8 11.8 12 20.3
2009-11-13 08:35:05 51°24.946 2°54.501 8.3 12.1 14 21
2009-11-13 08:35:10 51°24.963 2°54.505 7.4 12 11 21.4
2009-11-13 08:35:15 51°24.979 2°54.512 7.4 12 15 21.6
2009-11-13 08:35:20 51°24.995 2°54.518 9.1 11.9 10 21.6
2009-11-13 08:35:25 51°25.011 2°54.524 6.3 11.9 14 21.4
2009-11-13 08:35:30 51°25.027 2°54.53 9.6 12 15 21.4
2009-11-13 08:35:35 51°25.043 2°54.534 6.8 11.7 10 22
2009-11-13 08:35:40 51°25.059 2°54.542 6.5 12 18 21.9
2009-11-13 08:35:45 51°25.075 2°54.546 10.2 11.6 7 21.8
2009-11-13 08:35:50 51°25.091 2°54.552 4.4 11.7 11 21.9
2009-11-13 08:35:55 51°25.107 2°54.557 7.3 11.8 13 22.3
2009-11-13 08:36:00 51°25.122 2°54.562 6.2 11.7 14 22
2009-11-13 08:36:05 51°25.138 2°54.567 8.5 11.7 10 22.5
2009-11-13 08:36:10 51°25.154 2°54.57 4.6 11.6 7 22
2009-11-13 08:36:15 51°25.17 2°54.579 7.2 11.9 17 22.6
2009-11-13 08:36:20 51°25.186 2°54.58 5.5 11.5 3 21.9
2009-11-13 08:36:25 51°25.202 2°54.587 3.7 11.7 15 22.1
2009-11-13 08:36:30 51°25.218 2°54.591 5.9 11.6 10 21.8
2009-11-13 08:36:35 51°25.233 2°54.596 6.3 11.6 10 21.2
2009-11-13 08:36:40 51°25.249 2°54.603 6.3 11.7 14 22
2009-11-13 08:36:45 51°25.265 2°54.606 5.5 11.6 8 22.1
2009-11-13 08:36:50 51°25.281 2°54.614 7.3 12 17 22.7
2009-11-13 08:36:55 51°25.297 2°54.617 6.6 11.7 8 21.7
2009-11-13 08:37:00 51°25.313 2°54.624 7.6 11.9 15 21.3
2009-11-13 08:37:05 51°25.329 2°54.629 6.6 12 12 20.7
2009-11-13 08:37:10 51°25.345 2°54.635 8.1 11.9 13 19
2009-11-13 08:37:15 51°25.362 2°54.641 7.6 12.1 14 19.9
2009-11-13 08:37:20 51°25.378 2°54.646 6.5 12 12 20.6
2009-11-13 08:37:25 51°25.395 2°54.654 8.8 12.2 16 21.4
2009-11-13 08:37:30 51°25.411 2°54.658 8.2 12.2 9 21
2009-11-13 08:37:35 51°25.428 2°54.664 7 12.3 13 21.4
2009-11-13 08:37:40 51°25.445 2°54.67 8.3 12.2 12 22.1
2009-11-13 08:37:45 51°25.461 2°54.676 7.7 12.2 11 22.4
2009-11-13 08:37:50 51°25.478 2°54.681 6.6 12.1 11 22.2
2009-11-13 08:37:55 51°25.494 2°54.687 8.2 12.3 14 22.1
2009-11-13 08:38:00 51°25.511 2°54.692 7.3 12.1 10 21.9
2009-11-13 08:38:05 51°25.527 2°54.697 7 12.2 11 21.1
2009-11-13 08:38:10 51°25.544 2°54.702 6.6 12.4 11 20.8
2009-11-13 08:38:15 51°25.561 2°54.706 4.9 12.1 8 20.1
2009-11-13 08:38:20 51°25.577 2°54.712 5.1 12.1 12 20.8
2009-11-13 08:38:25 51°25.594 2°54.714 3.7 11.9 4 21.2
2009-11-13 08:38:30 51°25.61 2°54.718 1.2 12 7 21.7
2009-11-13 08:38:35 51°25.627 2°54.723 4.2 12 9 21.8
2009-11-13 08:38:40 51°25.643 2°54.725 1.8 11.9 5 22.3
2009-11-13 08:38:45 51°25.659 2°54.73 2.1 12 12 22
2009-11-13 08:38:50 51°25.676 2°54.732 4.1 11.9 5 22.4
2009-11-13 08:38:55 51°25.692 2°54.736 1.4 12 10 22.9
2009-11-13 08:39:00 51°25.709 2°54.739 2.9 12 6 22.2
2009-11-13 08:39:05 51°25.726 2°54.744 3.8 12.3 9 21
2009-11-13 08:39:10 51°25.742 2°54.747 1.4 12 7 22.6
2009-11-13 08:39:15 51°25.758 2°54.751 2 12.1 11 22.9
2009-11-13 08:39:20 51°25.775 2°54.754 3.7 11.8 5 22.7
2009-11-13 08:39:25 51°25.791 2°54.757 2.3 11.9 7 23.3
2009-11-13 08:39:30 51°25.807 2°54.762 2.6 12 10 23.5
2009-11-13 08:39:35 51°25.824 2°54.764 2.9 11.7 4 23.7
2009-11-13 08:39:40 51°25.841 2°54.769 1.2 12.3 11 23.9
2009-11-13 08:39:45 51°25.857 2°54.771 4.7 11.8 4 23.1
2009-11-13 08:39:50 51°25.874 2°54.775 1.2 11.9 6 24.2
2009-11-13 08:39:55 51°25.89 2°54.778 1.4 11.9 6 24
2009-11-13 08:40:00 51°25.906 2°54.784 4.4 11.9 11 25.3
2009-11-13 08:40:05 51°25.923 2°54.786 0.1 12 6 24.8
2009-11-13 08:40:10 51°25.939 2°54.789 2.6 12 8 24.4
2009-11-13 08:40:15 51°25.955 2°54.794 1.7 11.9 10 25.4
2009-11-13 08:40:20 51°25.972 2°54.798 4 11.9 10 25.1
2009-11-13 08:40:25 51°25.988 2°54.801 4.4 11.9 6 25.8
2009-11-13 08:40:30 51°26.004 2°54.805 2.3 12 8 26.2
2009-11-13 08:40:35 51°26.021 2°54.81 3.7 12.1 9 26.3
2009-11-13 08:40:40 51°26.037 2°54.812 3.1 12 6 26.2
2009-11-13 08:40:45 51°26.054 2°54.819 5.4 12.2 13 27
2009-11-13 08:40:50 51°26.07 2°54.821 2.6 12 7 26.8
2009-11-13 08:40:55 51°26.087 2°54.825 5.1 12.1 10 26.4
2009-11-13 08:41:00 51°26.104 2°54.829 3.6 12.1 8 26.5
2009-11-13 08:41:05 51°26.12 2°54.834 3.5 12.2 10 27.1
2009-11-13 08:41:10 51°26.137 2°54.837 2.9 12 6 27.5
2009-11-13 08:41:15 51°26.153 2°54.842 4.2 12.1 10 26.9
2009-11-13 08:41:20 51°26.17 2°54.846 4.9 12.1 10 27.1
2009-11-13 08:41:25 51°26.187 2°54.848 2.3 12.1 7 27.1
2009-11-13 08:41:30 51°26.203 2°54.854 5.6 12.2 12 26.7
2009-11-13 08:41:35 51°26.22 2°54.858 3.9 12.2 8 27.4
2009-11-13 08:41:40 51°26.237 2°54.861 3.5 12.1 7 26.9
2009-11-13 08:41:45 51°26.253 2°54.867 5.2 12.2 11 26.8
2009-11-13 08:41:50 51°26.27 2°54.87 3.4 12.1 9 26.6
2009-11-13 08:41:55 51°26.287 2°54.874 4 12.1 7 26.2
2009-11-13 08:42:00 51°26.303 2°54.878 2.8 12.1 9 26.2
2009-11-13 08:42:05 51°26.32 2°54.882 4.4 12.1 9 26.8
2009-11-13 08:42:10 51°26.337 2°54.885 3.6 12.1 7 26.6
2009-11-13 08:42:15 51°26.353 2°54.891 3.7 12.3 10 26.3
2009-11-13 08:42:20 51°26.37 2°54.893 2.5 12.2 6 26.8
2009-11-13 08:42:25 51°26.386 2°54.899 3.7 12.2 11 26.8
2009-11-13 08:42:30 51°26.403 2°54.902 4.5 12.2 7 27
2009-11-13 08:42:35 51°26.42 2°54.906 3.8 12.3 8 27.1
2009-11-13 08:42:40 51°26.437 2°54.912 4.4 12.3 11 27.7
2009-11-13 08:42:45 51°26.454 2°54.914 1.8 12.3 6 27.8
2009-11-13 08:42:50 51°26.471 2°54.919 3.4 12.3 9 27.7
2009-11-13 08:42:55 51°26.487 2°54.923 3.3 12.2 9 28.3
2009-11-13 08:43:00 51°26.505 2°54.927 4.2 12.4 8 27.4
2009-11-13 08:43:05 51°26.521 2°54.93 3.2 12.3 7 27.7
2009-11-13 08:43:10 51°26.538 2°54.935 3.2 12.2 10 27.6
2009-11-13 08:43:15 51°26.555 2°54.939 5.1 12.1 7 27.6
2009-11-13 08:43:20 51°26.571 2°54.941 1.1 12.2 6 28.9
2009-11-13 08:43:25 51°26.588 2°54.947 4.4 12.2 11 29.9
2009-11-13 08:43:30 51°26.605 2°54.951 4.2 12.2 9 30.5
2009-11-13 08:43:35 51°26.621 2°54.953 2 11.9 4 30.3
2009-11-13 08:43:40 51°26.638 2°54.958 2.7 12.3 11 30.5
2009-11-13 08:43:45 51°26.655 2°54.961 3.7 12.1 6 30.7
2009-11-13 08:43:50 51°26.671 2°54.965 1.8 12.1 6 30.4
2009-11-13 08:43:55 51°26.688 2°54.969 3.7 12.2 8 30.4
2009-11-13 08:44:00 51°26.705 2°54.971 2.5 12.2 6 29.7
2009-11-13 08:44:05 51°26.722 2°54.976 3.9 12.2 9 29.2
2009-11-13 08:44:10 51°26.739 2°54.979 2.9 12.2 5 29.3
2009-11-13 08:44:15 51°26.756 2°54.985 3.9 12.4 11 29.3
2009-11-13 08:44:20 51°26.773 2°54.986 3.6 12.3 5 28.7
2009-11-13 08:44:25 51°26.79 2°54.992 3.2 12.4 11 28.7
2009-11-13 08:44:30 51°26.807 2°54.995 2.6 12.3 6 28.9
2009-11-13 08:44:35 51°26.823 2°55.001 4.9 12.4 10 28.5
2009-11-13 08:44:40 51°26.84 2°55.003 3.8 12.3 8 28.3
2009-11-13 08:44:45 51°26.857 2°55.008 4.7 12.3 9 28.4
2009-11-13 08:44:50 51°26.874 2°55.013 4.7 12.4 9 28.4
2009-11-13 08:44:55 51°26.891 2°55.017 3.8 12.4 8 28.4
2009-11-13 08:45:00 51°26.908 2°55.022 3.6 12.5 10 28.7
2009-11-13 08:45:05 51°26.925 2°55.025 3.4 12.2 7 28.7
2009-11-13 08:45:10 51°26.942 2°55.031 5.3 12.5 11 28.3
2009-11-13 08:45:15 51°26.959 2°55.034 5.1 12.4 6 28.3
2009-11-13 08:45:20 51°26.976 2°55.04 4.3 12.5 13 28.4
2009-11-13 08:45:25 51°26.993 2°55.043 5 12.3 8 28.4
2009-11-13 08:45:30 51°27.01 2°55.047 4.4 12.4 8 28.9
2009-11-13 08:45:35 51°27.027 2°55.052 3.9 12.5 11 29.6
2009-11-13 08:45:40 51°27.043 2°55.056 5.3 12.2 8 29.8
2009-11-13 08:45:45 51°27.06 2°55.058 1.5 12.2 7 30.3
2009-11-13 08:45:50 51°27.077 2°55.064 4.6 12.3 11 29.9
2009-11-13 08:45:55 51°27.094 2°55.066 3.7 12.2 6 29.9
2009-11-13 08:46:00 51°27.111 2°55.071 2.6 12.4 10 30.5
2009-11-13 08:46:05 51°27.128 2°55.076 3.7 12.5 9 30.6
2009-11-13 08:46:10 51°27.145 2°55.079 4.1 12.4 7 30.6
2009-11-13 08:46:15 51°27.162 2°55.083 2.2 12.5 8 30.6
2009-11-13 08:46:20 51°27.179 2°55.087 3.3 12.5 8 30.8
2009-11-13 08:46:25 51°27.197 2°55.09 3.1 12.5 7 30.9
2009-11-13 08:46:30 51°27.213 2°55.095 3.9 12.4 10 31.1
2009-11-13 08:46:35 51°27.23 2°55.1 3.1 12.6 11 31.5
2009-11-13 08:46:40 51°27.247 2°55.102 2.1 12.3 5 31.4
2009-11-13 08:46:45 51°27.264 2°55.109 5 12.6 14 31.9
2009-11-13 08:46:50 51°27.281 2°55.11 3.7 12.1 6 31.9
2009-11-13 08:46:55 51°27.298 2°55.117 2.8 12.5 13 31.9
2009-11-13 08:47:00 51°27.315 2°55.119 4 11.9 4 30.8
2009-11-13 08:47:05 51°27.331 2°55.125 4.2 12.5 13 31.2
2009-11-13 08:47:10 51°27.348 2°55.127 1.7 12.1 6 30.6
2009-11-13 08:47:15 51°27.365 2°55.133 4.3 12.3 10 31.3
2009-11-13 08:47:20 51°27.381 2°55.137 3.5 12.2 9 31.5
2009-11-13 08:47:25 51°27.398 2°55.141 3.7 12.2 8 31.5
2009-11-13 08:47:30 51°27.415 2°55.144 3 12.2 7 31.2
2009-11-13 08:47:35 51°27.432 2°55.149 4.2 12.3 7 29.9
2009-11-13 08:47:40 51°27.449 2°55.152 1.8 12.2 8 31.4
2009-11-13 08:47:45 51°27.466 2°55.157 3.7 12.3 9 31.9
2009-11-13 08:47:50 51°27.483 2°55.158 1.5 12.2 3 31.6
2009-11-13 08:47:55 51°27.499 2°55.164 4.4 12.2 10 31.9
2009-11-13 08:48:00 51°27.516 2°55.168 3.2 12.3 9 32
2009-11-13 08:48:05 51°27.533 2°55.171 2.9 12.2 7 30.7
2009-11-13 08:48:10 51°27.55 2°55.176 3.5 12.2 9 31.4
2009-11-13 08:48:15 51°27.566 2°55.18 2.3 12.2 9 31.2
2009-11-13 08:48:20 51°27.583 2°55.184 4.2 11.9 6 30.8
2009-11-13 08:48:25 51°27.599 2°55.186 -999 12.1 6 30.8
2009-11-13 08:48:30 51°27.616 2°55.191 3 12.3 11 30.5
2009-11-13 08:48:35 51°27.633 2°55.193 2.4 12.1 5 30.4
2009-11-13 08:48:40 51°27.65 2°55.197 1.3 12.2 8 30
2009-11-13 08:48:45 51°27.666 2°55.2 2 12 6 29.8
2009-11-13 08:48:50 51°27.683 2°55.205 2.1 12.1 9 30.2
2009-11-13 08:48:55 51°27.699 2°55.206 2.3 11.8 3 30.4
2009-11-13 08:49:00 51°27.716 2°55.211 1.7 12.1 10 30.1
2009-11-13 08:49:05 51°27.732 2°55.212 2.1 11.9 4 30.1
2009-11-13 08:49:10 51°27.749 2°55.217 1.5 12.1 8 30
2009-11-13 08:49:15 51°27.765 2°55.221 4.5 12 9 30.4
2009-11-13 08:49:20 51°27.782 2°55.225 2.4 12.1 6 30.5
2009-11-13 08:49:25 51°27.799 2°55.229 4.1 12.1 8 30.4
2009-11-13 08:49:30 51°27.815 2°55.233 2.8 12.2 9 30.6
2009-11-13 08:49:35 51°27.832 2°55.237 2.9 12.2 10 29.9
2009-11-13 08:49:40 51°27.849 2°55.24 4.4 12 6 29.7
2009-11-13 08:49:45 51°27.865 2°55.244 0.9 12.1 9 30.1
2009-11-13 08:49:50 51°27.882 2°55.248 3.7 12 9 30.1
2009-11-13 08:49:55 51°27.898 2°55.252 3.7 12.2 10 30
2009-11-13 08:50:00 51°27.915 2°55.256 3.7 12.2 8 30
2009-11-13 08:50:05 51°27.932 2°55.261 4.9 12.2 9 30.2
2009-11-13 08:50:10 51°27.948 2°55.264 3.1 12.2 7 29.9
2009-11-13 08:50:15 51°27.965 2°55.269 3.3 12.2 11 29.9